• Join FlightAware (Why Join?)
  • Login
  • US Flag 
05:45AM EDT


 

Airport Tracker/Info


-or-


 

Live Flight TrackerFlight Track Log ✈ SWA525 ✈ 02-May-2013 ✈ KMCO - KSTL

Flight Track Log - Related Links

Times and Time Zones

All times are in EDT time to prevent confusion due to time zone crossing. See the SWA525 flight status page for this flight to view local times or setup timezone preferences in your user account.

Time Position Orientation Groundspeed Altitude Reporting Facility
EDT Latitude Longitude Course Direction KTS MPH feet Rate Location/Type
08:50PM 28.3667 -81.3333 196° South 211 243 2,900  Level Orlando TRACON
08:51PM 28.3333 -81.3833 233° Southwest 229 264 5,700 2,760 Climbing Orlando TRACON
08:52PM 28.3333 -81.4500 270° West 235 270 7,900 2,640 Climbing Orlando TRACON
08:55PM 28.3589 -81.6614 278° West 313 360 14,500 2,460 Climbing Jacksonville Center
08:56PM 28.3683 -81.7625 276° West 313 360 16,400 1,920 Climbing Jacksonville Center
08:57PM 28.3817 -81.8733 278° West 338 389 18,400 2,160 Climbing Jacksonville Center
08:58PM 28.3931 -81.9958 276° West 370 426 20,800 2,220 Climbing Jacksonville Center
08:59PM 28.4125 -82.1161 280° West 384 442 22,900 1,980 Climbing Jacksonville Center
09:00PM 28.4903 -82.2169 311° West 389 448 24,800 1,680 Climbing Jacksonville Center
09:01PM 28.5889 -82.2919 326° Northwest 394 453 26,300 1,380 Climbing Jacksonville Center
09:02PM 28.6894 -82.3861 321° Northwest 414 476 27,600 1,500 Climbing Jacksonville Center
09:03PM 28.7939 -82.4542 330° Northwest 439 505 29,300 1,680 Climbing Jacksonville Center
09:04PM 28.8967 -82.5344 326° Northwest 452 520 31,000 2,040 Climbing Jacksonville Center
09:05PM 28.9969 -82.6172 324° Northwest 452 520 33,400 1,500 Climbing Jacksonville Center
09:06PM 29.0972 -82.6931 327° Northwest 441 507 34,000 840 Climbing Jacksonville Center
09:07PM 29.1997 -82.7761 325° Northwest 446 513 35,100 960 Climbing Jacksonville Center
09:08PM 29.3019 -82.8569 325° Northwest 446 513 36,000 420 Climbing Jacksonville Center
09:09PM 29.4042 -82.9403 325° Northwest 446 513 36,000  Level Jacksonville Center
09:10PM 29.5189 -83.0333 325° Northwest 454 522 36,000  Level Jacksonville Center
09:11PM 29.6192 -83.1147 325° Northwest 447 514 36,000  Level Jacksonville Center
09:12PM 29.7253 -83.2011 325° Northwest 453 521 36,000  Level Jacksonville Center
09:13PM 29.8150 -83.2731 325° Northwest 450 518 36,000  Level Jacksonville Center
09:14PM 29.9169 -83.3550 325° Northwest 450 518 36,000  Level Jacksonville Center
09:15PM 30.0189 -83.4372 325° Northwest 450 518 36,000 -60 Level Jacksonville Center
09:16PM 30.1208 -83.5194 325° Northwest 450 518 35,900 -60 Descending Jacksonville Center
09:17PM 30.2228 -83.6042 324° Northwest 450 518 35,900  Level Jacksonville Center
09:18PM 30.3247 -83.6867 325° Northwest 450 518 36,000  Climbing Jacksonville Center
09:19PM 30.4222 -83.7669 325° Northwest 445 512 35,900  Descending Jacksonville Center
09:20PM 30.5239 -83.8500 325° Northwest 445 512 36,000  Climbing Jacksonville Center
09:21PM 30.6089 -83.9281 322° Northwest 445 512 36,000  Level Jacksonville Center
09:22PM 30.7189 -84.0139 326° Northwest 440 506 36,000  Level Jacksonville Center
09:23PM 30.8183 -84.0997 323° Northwest 440 506 36,000  Level Jacksonville Center
09:24PM 30.9178 -84.1808 325° Northwest 440 506 36,000  Level Jacksonville Center
09:25PM 31.0169 -84.2622 325° Northwest 440 506 36,000  Level Jacksonville Center
09:26PM 31.1142 -84.3461 324° Northwest 440 506 36,000  Level Jacksonville Center
09:27PM 31.2114 -84.4278 324° Northwest 440 506 36,000  Level Jacksonville Center
09:28PM 31.3106 -84.5119 324° Northwest 440 506 36,000  Level Jacksonville Center
09:29PM 31.4842 -84.6597 324° Northwest 429 494 36,000  Level Atlanta Center
09:30PM 31.5861 -84.7433 325° Northwest 435 501 36,000  Level Atlanta Center
09:31PM 31.6814 -84.8294 322° Northwest 440 506 36,000  Level Atlanta Center
09:32PM 31.7811 -84.9133 324° Northwest 440 506 36,000  Level Atlanta Center
09:33PM 31.8828 -85.0000 324° Northwest 440 506 36,000  Level Atlanta Center
09:34PM 31.9822 -85.0844 324° Northwest 440 506 36,000  Level Atlanta Center
09:35PM 32.0714 -85.1589 325° Northwest 440 506 36,000  Level Atlanta Center
09:36PM 32.1686 -85.2411 324° Northwest 435 501 36,000  Level Atlanta Center
09:37PM 32.2803 -85.3383 324° Northwest 435 501 36,000  Level Atlanta Center
09:38PM 32.3775 -85.4211 324° Northwest 435 501 36,000  Level Atlanta Center
09:39PM 32.4767 -85.5089 323° Northwest 435 501 36,000  Level Atlanta Center
09:40PM 32.5758 -85.5942 324° Northwest 435 501 36,000  Level Atlanta Center
09:41PM 32.6769 -85.6825 324° Northwest 435 501 36,000  Level Atlanta Center
09:42PM 32.7761 -85.7683 324° Northwest 435 501 36,000  Level Atlanta Center
09:43PM 32.8731 -85.8542 323° Northwest 435 501 36,000  Level Atlanta Center
09:44PM 32.9697 -85.9428 322° Northwest 435 501 36,000  Level Atlanta Center
09:45PM 33.0644 -86.0292 323° Northwest 435 501 36,000  Level Atlanta Center
09:46PM 33.1631 -86.1108 325° Northwest 435 501 36,000  Level Atlanta Center
09:47PM 33.2619 -86.1978 324° Northwest 430 495 36,000  Level Atlanta Center
09:48PM 33.3583 -86.2872 322° Northwest 435 501 36,000  Level Atlanta Center
09:49PM 33.4528 -86.3742 322° Northwest 430 495 36,000  Level Atlanta Center
09:50PM 33.5369 -86.4489 324° Northwest 435 501 36,000  Level Atlanta Center
09:51PM 33.6353 -86.5389 323° Northwest 430 495 36,000  Level Atlanta Center
09:52PM 33.7336 -86.6242 324° Northwest 430 495 36,000  Level Atlanta Center
09:54PM 33.9386 -86.8169 322° Northwest 448 516 36,000  Level Memphis Center
09:55PM 34.0500 -86.9203 322° Northwest 457 526 36,000  Level Memphis Center
09:56PM 34.1464 -87.0092 323° Northwest 449 517 36,000  Level Memphis Center
09:57PM 34.2317 -87.0861 323° Northwest 449 517 36,000  Level Memphis Center
09:58PM 34.3322 -87.1781 323° Northwest 449 517 36,000  Level Memphis Center
09:59PM 34.4283 -87.2625 324° Northwest 449 517 36,000  Level Memphis Center
10:00PM 34.5267 -87.3547 322° Northwest 443 510 36,000  Level Memphis Center
10:01PM 34.6269 -87.4497 322° Northwest 449 517 36,000  Level Memphis Center
10:02PM 34.7247 -87.5347 324° Northwest 449 517 36,000  Level Memphis Center
10:03PM 34.8269 -87.6275 323° Northwest 449 517 36,000  Level Memphis Center
10:04PM 34.9103 -87.7158 319° Northwest 449 517 36,000  Level Memphis Center
10:05PM 35.0294 -87.8261 323° Northwest 449 517 36,000  Level Memphis Center
10:06PM 35.1186 -87.9047 324° Northwest 449 517 36,000  Level Memphis Center
10:07PM 35.2142 -87.9961 322° Northwest 444 511 36,000  Level Memphis Center
10:08PM 35.3100 -88.0900 321° Northwest 439 505 36,000  Level Memphis Center
10:09PM 35.4053 -88.1817 322° Northwest 439 505 36,000  Level Memphis Center
10:10PM 35.5008 -88.2683 324° Northwest 439 505 36,000  Level Memphis Center
10:11PM 35.5983 -88.3603 323° Northwest 439 505 36,000  Level Memphis Center
10:12PM 35.6978 -88.4550 322° Northwest 444 511 36,000  Level Memphis Center
10:13PM 35.7950 -88.5500 322° Northwest 450 518 36,000  Level Memphis Center
10:14PM 35.8944 -88.6478 321° Northwest 450 518 36,000 -360 Level Memphis Center
10:15PM 35.9917 -88.7433 322° Northwest 450 518 35,300 -540 Descending Memphis Center
10:16PM 36.0908 -88.8417 321° Northwest 450 518 35,000 -180 Descending Memphis Center
10:17PM 36.1922 -88.9400 322° Northwest 455 524 35,000  Level Memphis Center
10:18PM 36.2953 -89.0333 324° Northwest 455 524 35,000  Level Memphis Center
10:19PM 36.4128 -89.1011 335° Northwest 455 524 35,000 -540 Level Memphis Center
10:20PM 36.5489 -89.1764 336° Northwest 463 533 34,000 -540 Descending Memphis Center
10:21PM 36.6622 -89.2447 334° Northwest 469 540 34,000 -900 Level Memphis Center
10:22PM 36.7733 -89.3131 334° Northwest 457 526 32,300 -2,100 Descending Memphis Center
10:23PM 36.8864 -89.3764 336° Northwest 450 518 29,800 -2,400 Descending Memphis Center
10:24PM 36.9953 -89.4400 335° Northwest 438 504 27,500 -1,200 Descending Memphis Center
10:27PM 37.2239 -89.5708 336° Northwest 412 474 26,000 -480 Descending Kansas City Center
10:28PM 37.3347 -89.6322 336° Northwest 430 495 26,000  Level Kansas City Center
10:29PM 37.4486 -89.6933 337° Northwest 441 507 26,000 -840 Level Kansas City Center
10:30PM 37.5594 -89.7553 336° Northwest 437 503 24,400 -2,040 Descending Kansas City Center
10:31PM 37.6736 -89.8181 336° Northwest 419 482 21,900 -2,280 Descending Kansas City Center
10:32PM 37.7747 -89.8733 337° Northwest 401 461 19,800 -2,280 Descending Kansas City Center
10:33PM 37.8800 -89.9319 336° Northwest 385 443 17,300 -2,400 Descending Kansas City Center
10:34PM 37.9847 -89.9875 337° Northwest 379 436 14,900 -2,220 Descending Kansas City Center
10:35PM 38.0781 -90.0411 336° Northwest 370 426 12,800 -1,920 Descending Kansas City Center
10:36PM 38.1558 -90.0731 342° North 361 415 11,100 -1,440 Descending Kansas City Center
10:37PM 38.2703 -90.0850 355° North 349 402 9,900 -900 Descending Kansas City Center
10:38PM 38.3517 -90.0883 358° North 317 365 9,300 -840 Descending Kansas City Center
10:39PM 38.4311 -90.0931 357° North 298 343 8,300 -1,020 Descending Kansas City Center
10:40PM 38.4983 -90.0953 359° North 276 318 7,300 -1,200 Descending Kansas City Center
10:41PM 38.5628 -90.0975 358° North 252 290 5,900 -1,260 Descending Kansas City Center
10:42PM 38.6203 -90.1114 349° North 230 265 4,800 -1,080 Descending Kansas City Center
10:43PM 38.6556 -90.1697 308° West 217 250 3,700 -1,080 Descending Kansas City Center
10:44PM 38.6842 -90.2294 302° West 207 238 2,600 -1,020 Descending Kansas City Center
10:45PM 38.7097 -90.2808 303° West 164 189 1,700 -840 Descending Kansas City Center
10:46PM 38.7278 -90.3164 303° West 136 157 1,000 -540 Descending Kansas City Center
10:47PM 38.7436 -90.3478 303° West 129 148 600 -420 Descending Kansas City Center